createdAt,value
2023-04-28T00:00:29.829Z,100179.00
2023-04-28T00:02:57.665Z,100174.59
2023-04-28T00:05:25.452Z,100181.09
2023-04-28T00:07:52.983Z,100170.22
2023-04-28T00:10:20.711Z,100174.00
2023-04-28T00:12:48.114Z,100178.16
2023-04-28T00:15:16.149Z,100163.94
2023-04-28T00:17:44.310Z,100172.09
2023-04-28T00:20:11.929Z,100171.28
2023-04-28T00:22:39.333Z,100170.41
2023-04-28T00:25:07.469Z,100168.56
2023-04-28T00:27:35.100Z,100170.41
2023-04-28T00:30:02.739Z,100164.97
2023-04-28T00:32:32.337Z,100165.84
2023-04-28T00:34:59.741Z,100166.66
2023-04-28T00:37:27.131Z,100161.44
2023-04-28T00:39:56.283Z,100166.88
2023-04-28T00:42:24.129Z,100164.16
2023-04-28T00:44:51.806Z,100167.69
2023-04-28T00:47:19.624Z,100175.84
2023-04-28T00:49:47.699Z,100166.03
2023-04-28T00:52:15.273Z,100169.59
2023-04-28T00:54:42.923Z,100172.53
2023-04-28T00:57:10.764Z,100178.78
2023-04-28T00:59:38.811Z,100178.56
2023-04-28T01:02:07.727Z,100179.44
2023-04-28T01:04:35.294Z,100187.59
2023-04-28T01:07:02.799Z,100186.72
2023-04-28T01:09:30.655Z,100186.53
2023-04-28T01:11:58.435Z,100185.69
2023-04-28T01:14:26.702Z,100189.25
2023-04-28T01:16:54.568Z,100189.25
2023-04-28T01:19:22.474Z,100190.91
2023-04-28T01:21:50.521Z,100191.75
2023-04-28T01:24:18.586Z,100188.19
2023-04-28T01:26:46.463Z,100182.97
2023-04-28T01:29:14.029Z,100190.91
2023-04-28T01:31:41.990Z,100184.66
2023-04-28T01:34:09.531Z,100188.19
2023-04-28T01:36:37.894Z,100185.47
2023-04-28T01:39:05.952Z,100176.50
2023-04-28T01:41:36.599Z,100175.44
2023-04-28T01:44:06.204Z,100174.59
2023-04-28T01:46:34.637Z,100177.31
2023-04-28T01:49:02.172Z,100172.72
2023-04-28T01:51:29.582Z,100168.12
2023-04-28T01:53:57.541Z,100175.66
2023-04-28T01:56:25.160Z,100178.38
2023-04-28T01:58:52.820Z,100167.50
2023-04-28T02:01:20.777Z,100174.81
2023-04-28T02:03:49.248Z,100174.00
2023-04-28T02:06:17.084Z,100184.00
2023-04-28T02:08:44.526Z,100184.00
2023-04-28T02:11:13.159Z,100181.50
2023-04-28T02:13:40.752Z,100182.34
2023-04-28T02:16:08.167Z,100182.34
2023-04-28T02:18:36.311Z,100180.69
2023-04-28T02:21:11.813Z,100181.72
2023-04-28T02:23:39.930Z,100188.00
2023-04-28T02:26:07.720Z,100188.22
2023-04-28T02:28:35.117Z,100184.62
2023-04-28T02:31:09.825Z,100187.34
2023-04-28T02:33:37.884Z,100190.94
2023-04-28T02:36:06.068Z,100186.53
2023-04-28T02:38:33.502Z,100189.25
2023-04-28T02:41:02.500Z,100186.53
2023-04-28T02:43:30.429Z,100184.03
2023-04-28T02:45:57.795Z,100188.22
2023-04-28T02:48:25.895Z,100191.12
2023-04-28T02:50:53.840Z,100185.69
2023-04-28T02:53:21.740Z,100193.00
2023-04-28T02:55:49.633Z,100191.12
2023-04-28T02:58:18.184Z,100183.81
2023-04-28T03:00:46.403Z,100191.12
2023-04-28T03:03:14.589Z,100189.47
2023-04-28T03:05:42.321Z,100191.34
2023-04-28T03:08:09.755Z,100194.91
2023-04-28T03:10:37.403Z,100194.69
2023-04-28T03:13:04.984Z,100196.56
2023-04-28T03:15:32.436Z,100187.56
2023-04-28T03:18:00.168Z,100197.63
2023-04-28T03:20:27.885Z,100194.91
2023-04-28T03:22:55.879Z,100197.41
2023-04-28T03:25:23.643Z,100200.94
2023-04-28T03:27:51.560Z,100191.34
2023-04-28T03:30:19.098Z,100190.50
2023-04-28T03:32:46.910Z,100190.50
2023-04-28T03:35:14.606Z,100189.47
2023-04-28T03:37:42.201Z,100192.19
2023-04-28T03:40:10.501Z,100191.34
2023-04-28T03:42:39.365Z,100192.19
2023-04-28T03:45:08.488Z,100193.00
2023-04-28T03:47:36.443Z,100189.47
2023-04-28T03:50:04.318Z,100187.56
2023-04-28T03:52:31.772Z,100195.12
2023-04-28T03:54:59.514Z,100192.41
2023-04-28T03:57:26.983Z,100195.31
2023-04-28T03:59:54.423Z,100196.13
2023-04-28T04:02:22.319Z,100200.75
2023-04-28T04:04:50.310Z,100201.78
2023-04-28T04:07:17.912Z,100203.91
2023-04-28T04:09:45.332Z,100210.16
2023-04-28T04:12:13.025Z,100206.81
2023-04-28T04:14:40.791Z,100210.09
2023-04-28T04:17:08.300Z,100210.69
2023-04-28T04:19:35.989Z,100211.34
2023-04-28T04:22:03.384Z,100210.72
2023-04-28T04:24:31.243Z,100219.47
2023-04-28T04:26:58.975Z,100214.91
2023-04-28T04:29:27.482Z,100219.50
2023-04-28T04:31:55.150Z,100216.00
2023-04-28T04:34:22.849Z,100217.91
2023-04-28T04:36:50.542Z,100211.81
2023-04-28T04:39:18.750Z,100212.03
2023-04-28T04:41:48.141Z,100205.53
2023-04-28T04:44:18.395Z,100205.97
2023-04-28T04:46:47.241Z,100205.94
2023-04-28T04:49:15.699Z,100211.38
2023-04-28T04:51:43.232Z,100217.03
2023-04-28T04:54:11.202Z,100214.72
2023-04-28T04:56:39.556Z,100221.62
2023-04-28T04:59:07.280Z,100219.09
2023-04-28T05:01:36.045Z,100216.97
2023-04-28T05:04:03.844Z,100217.63
2023-04-28T05:06:31.880Z,100217.41
2023-04-28T05:08:59.762Z,100217.19
2023-04-28T05:11:27.356Z,100213.19
2023-04-28T05:13:54.815Z,100218.88
2023-04-28T05:16:23.493Z,100222.44
2023-04-28T05:18:51.420Z,100221.59
2023-04-28T05:21:18.989Z,100219.94
2023-04-28T05:23:46.912Z,100218.88
2023-04-28T05:26:14.385Z,100224.31
2023-04-28T05:28:41.939Z,100225.38
2023-04-28T05:31:09.716Z,100229.94
2023-04-28T05:33:37.277Z,100235.41
2023-04-28T05:36:05.624Z,100232.91
2023-04-28T05:38:33.914Z,100226.00
2023-04-28T05:41:02.033Z,100225.16
2023-04-28T05:43:29.571Z,100228.09
2023-04-28T05:45:57.464Z,100223.72
2023-04-28T05:48:24.927Z,100226.44
2023-04-28T05:50:52.294Z,100233.75
2023-04-28T05:53:20.134Z,100232.28
2023-04-28T05:55:48.274Z,100227.06
2023-04-28T05:58:15.779Z,100230.00
2023-04-28T06:00:43.795Z,100233.75
2023-04-28T06:03:14.469Z,100232.91
2023-04-28T06:05:42.348Z,100229.59
2023-04-28T06:08:10.325Z,100238.81
2023-04-28T06:10:38.065Z,100246.97
2023-04-28T06:13:06.539Z,100249.84
2023-04-28T06:15:34.124Z,100250.91
2023-04-28T06:18:02.200Z,100240.25
2023-04-28T06:20:29.634Z,100241.50
2023-04-28T06:22:57.394Z,100247.16
2023-04-28T06:25:25.076Z,100246.50
2023-04-28T06:27:52.516Z,100249.22
2023-04-28T06:30:24.586Z,100248.62
2023-04-28T06:32:52.450Z,100249.03
2023-04-28T06:35:19.929Z,100249.03
2023-04-28T06:37:47.363Z,100250.09
2023-04-28T06:40:15.973Z,100247.59
2023-04-28T06:42:43.637Z,100247.78
2023-04-28T06:45:11.777Z,100247.78
2023-04-28T06:47:40.770Z,100246.12
2023-04-28T06:50:09.330Z,100251.56
2023-04-28T06:52:39.563Z,100252.38
2023-04-28T06:55:09.426Z,100256.16
2023-04-28T06:57:38.263Z,100250.94
2023-04-28T07:00:06.521Z,100246.34
2023-04-28T07:02:35.166Z,100250.94
2023-04-28T07:05:03.657Z,100244.84
2023-04-28T07:07:31.278Z,100241.31
2023-04-28T07:10:00.441Z,100243.41
2023-04-28T07:12:27.990Z,100241.75
2023-04-28T07:14:56.195Z,100238.16
2023-04-28T07:17:23.962Z,100245.50
2023-04-28T07:19:51.376Z,100244.66
2023-04-28T07:22:18.763Z,100240.28
2023-04-28T07:24:46.486Z,100240.50
2023-04-28T07:27:14.464Z,100240.50
2023-04-28T07:29:42.240Z,100241.31
2023-04-28T07:32:10.675Z,100240.50
2023-04-28T07:34:38.443Z,100238.78
2023-04-28T07:37:06.796Z,100237.97
2023-04-28T07:39:35.343Z,100237.13
2023-04-28T07:42:03.439Z,100237.13
2023-04-28T07:44:31.355Z,100234.41
2023-04-28T07:46:59.762Z,100228.97
2023-04-28T07:49:28.517Z,100229.19
2023-04-28T07:51:56.809Z,100231.91
2023-04-28T07:54:24.989Z,100222.91
2023-04-28T07:56:52.434Z,100217.47
2023-04-28T07:59:19.859Z,100212.25
2023-04-28T08:01:47.557Z,100212.25
2023-04-28T08:04:15.542Z,100205.97
2023-04-28T08:06:43.368Z,100200.50
2023-04-28T08:09:10.812Z,100204.28
2023-04-28T08:11:38.540Z,100202.63
2023-04-28T08:14:06.024Z,100201.56
2023-04-28T08:16:36.595Z,100198.03
2023-04-28T08:19:04.469Z,100183.59
2023-04-28T08:21:32.844Z,100185.25
2023-04-28T08:24:00.222Z,100188.19
2023-04-28T08:26:27.975Z,100182.75
2023-04-28T08:28:55.408Z,100181.09
2023-04-28T08:31:23.854Z,100178.38
2023-04-28T08:33:51.653Z,100181.09
2023-04-28T08:36:19.121Z,100174.81
2023-04-28T08:38:46.925Z,100182.13
2023-04-28T08:41:17.891Z,100184.84
2023-04-28T08:43:45.717Z,100180.44
2023-04-28T08:46:14.647Z,100177.72
2023-04-28T08:48:45.158Z,100168.97
2023-04-28T08:51:16.965Z,100172.28
2023-04-28T08:54:11.726Z,100167.06
2023-04-28T08:56:34.565Z,100162.69
2023-04-28T08:59:04.248Z,100160.59
2023-04-28T09:01:32.198Z,100172.50
2023-04-28T09:04:03.462Z,100159.13
2023-04-28T09:06:38.300Z,100167.28
2023-04-28T09:09:28.374Z,100163.53
2023-04-28T09:11:59.596Z,100162.69
2023-04-28T09:14:32.974Z,100164.78
2023-04-28T09:17:01.171Z,100164.78
2023-04-28T09:19:36.246Z,100169.37
2023-04-28T09:22:17.742Z,100172.94
2023-04-28T09:24:53.230Z,100168.53
2023-04-28T09:27:27.176Z,100167.47
2023-04-28T09:29:54.617Z,100166.66
2023-04-28T09:32:23.201Z,100171.25
2023-04-28T09:34:56.631Z,100161.44
2023-04-28T09:37:30.782Z,100167.94
2023-04-28T09:40:09.431Z,100155.16
2023-04-28T09:42:37.080Z,100155.78
2023-04-28T09:45:06.003Z,100154.12
2023-04-28T09:47:43.276Z,100159.56
2023-04-28T09:50:17.200Z,100151.63
2023-04-28T09:52:49.085Z,100159.78
2023-04-28T09:55:17.760Z,100147.84
2023-04-28T09:57:45.515Z,100151.41
2023-04-28T10:00:15.125Z,100135.31
2023-04-28T10:02:44.179Z,100119.00
2023-04-28T10:05:12.278Z,100111.66
2023-04-28T10:07:40.263Z,100111.66
2023-04-28T10:10:08.365Z,100107.25
2023-04-28T10:12:38.791Z,100104.53
2023-04-28T10:15:07.798Z,100097.44
2023-04-28T10:17:35.619Z,100102.88
2023-04-28T10:20:03.522Z,100102.03
2023-04-28T10:22:33.732Z,100113.75
2023-04-28T10:25:36.879Z,100087.63
2023-04-28T10:28:07.987Z,100091.16
2023-04-28T10:30:36.131Z,100070.25
2023-04-28T10:33:06.692Z,100073.19
2023-04-28T10:35:36.398Z,100078.63
2023-04-28T10:38:10.820Z,100081.34
2023-04-28T10:40:45.465Z,100066.91
2023-04-28T10:43:14.339Z,100059.81
2023-04-28T10:46:01.753Z,100067.97
2023-04-28T10:48:29.866Z,100056.03
2023-04-28T10:51:06.992Z,100054.37
2023-04-28T10:53:49.102Z,100058.94
2023-04-28T10:56:21.608Z,100048.06
2023-04-28T10:58:50.820Z,100048.31
2023-04-28T11:01:21.571Z,100039.09
2023-04-28T11:04:04.760Z,100052.06
2023-04-28T11:06:36.705Z,100057.28
2023-04-28T11:09:33.024Z,100046.63
2023-04-28T11:12:00.346Z,100044.53
2023-04-28T11:14:35.192Z,100044.75
2023-04-28T11:17:04.160Z,100040.97
2023-04-28T11:19:31.642Z,100043.09
2023-04-28T11:22:03.158Z,100033.87
2023-04-28T11:24:30.621Z,100033.03
2023-04-28T11:26:58.910Z,100033.03
2023-04-28T11:29:40.288Z,100037.66
2023-04-28T11:32:09.454Z,100033.03
2023-04-28T11:34:37.135Z,100039.53
2023-04-28T11:37:05.998Z,100042.25
2023-04-28T11:39:34.007Z,100040.37
2023-04-28T11:42:09.950Z,100027.63
2023-04-28T11:44:38.078Z,100030.31
2023-04-28T11:47:06.318Z,100014.25
2023-04-28T11:49:44.297Z,100019.69
2023-04-28T11:52:12.280Z,100025.94
2023-04-28T11:54:42.460Z,100014.44
2023-04-28T11:57:19.378Z,100009.22
2023-04-28T11:59:47.820Z,100009.19
2023-04-28T12:02:17.055Z,100007.34
2023-04-28T12:04:44.965Z,100007.75
2023-04-28T12:07:18.659Z,100006.91
2023-04-28T12:09:48.257Z,100010.69
2023-04-28T12:15:05.597Z,99996.28
2023-04-28T12:17:37.857Z,99997.53
2023-04-28T12:20:11.756Z,99995.03
2023-04-28T12:22:48.978Z,99983.09
2023-04-28T12:25:17.849Z,99986.88
2023-04-28T12:28:04.791Z,99990.66
2023-04-28T12:30:33.993Z,99980.38
2023-04-28T12:33:01.513Z,99975.41
2023-04-28T12:35:29.079Z,99976.41
2023-04-28T12:37:58.448Z,99963.69
2023-04-28T12:40:26.228Z,99957.41
2023-04-28T12:42:53.854Z,99953.84
2023-04-28T12:45:21.916Z,99942.16
2023-04-28T12:47:49.443Z,99936.94
2023-04-28T12:50:16.904Z,99938.81
2023-04-28T12:52:44.611Z,99926.06
2023-04-28T12:55:12.035Z,99923.53
2023-04-28T12:57:39.810Z,99914.53
2023-04-28T13:00:08.789Z,99907.25
2023-04-28T13:02:36.929Z,99900.09
2023-04-28T13:05:04.697Z,99890.06
2023-04-28T13:07:35.796Z,99881.91
2023-04-28T13:10:03.208Z,99893.66
2023-04-28T13:12:30.679Z,99883.59
2023-04-28T13:14:58.374Z,99886.31
2023-04-28T13:17:26.597Z,99881.75
2023-04-28T13:19:54.287Z,99880.06
2023-04-28T13:22:21.959Z,99885.50
2023-04-28T13:24:49.342Z,99875.66
2023-04-28T13:27:16.765Z,99870.03
2023-04-28T13:29:44.553Z,99871.03
2023-04-28T13:32:11.982Z,99872.09
2023-04-28T13:34:40.236Z,99879.44
2023-04-28T13:37:08.038Z,99868.56
2023-04-28T13:39:35.510Z,99873.75
2023-04-28T13:42:03.047Z,99879.19
2023-04-28T13:44:30.793Z,99878.37
2023-04-28T13:46:58.211Z,99882.97
2023-04-28T13:49:25.728Z,99870.22
2023-04-28T13:51:53.436Z,99856.84
2023-04-28T13:54:21.422Z,99866.66
2023-04-28T13:56:48.892Z,99855.59
2023-04-28T13:59:16.751Z,99844.72
2023-04-28T14:01:44.303Z,99842.84
2023-04-28T14:04:12.279Z,99834.88
2023-04-28T14:06:39.827Z,99834.06
2023-04-28T14:09:07.379Z,99827.56
2023-04-28T14:11:35.032Z,99828.63
2023-04-28T14:14:02.586Z,99830.50
2023-04-28T14:16:30.666Z,99833.22
2023-04-28T14:18:58.860Z,99827.78
2023-04-28T14:21:26.615Z,99827.78
2023-04-28T14:23:54.129Z,99825.91
2023-04-28T14:26:23.848Z,99824.03
2023-04-28T14:28:51.266Z,99823.81
2023-04-28T14:31:19.028Z,99818.19
2023-04-28T14:33:46.988Z,99808.38
2023-04-28T14:36:14.591Z,99813.59
2023-04-28T14:38:42.161Z,99811.69
2023-04-28T14:41:09.942Z,99806.91
2023-04-28T14:43:38.083Z,99807.72
2023-04-28T14:46:05.840Z,99812.94
2023-04-28T14:48:33.593Z,99806.44
2023-04-28T14:51:01.135Z,99804.34
2023-04-28T14:53:28.678Z,99798.09
2023-04-28T14:56:01.988Z,99795.16
2023-04-28T14:58:35.365Z,99793.25
2023-04-28T15:01:03.382Z,99799.28
2023-04-28T15:03:30.986Z,99792.19
2023-04-28T15:05:58.509Z,99794.72
2023-04-28T15:08:27.716Z,99790.94
2023-04-28T15:10:56.824Z,99794.50
2023-04-28T15:13:28.568Z,99784.44
2023-04-28T15:15:56.458Z,99789.88
2023-04-28T15:18:24.498Z,99791.53
2023-04-28T15:20:51.918Z,99786.94
2023-04-28T15:23:20.313Z,99778.59
2023-04-28T15:25:49.903Z,99777.75
2023-04-28T15:28:17.333Z,99774.19
2023-04-28T15:30:45.027Z,99767.09
2023-04-28T15:33:17.754Z,99772.53
2023-04-28T15:35:45.555Z,99776.28
2023-04-28T15:38:13.043Z,99773.81
2023-04-28T15:40:40.732Z,99770.25
2023-04-28T15:43:08.423Z,99772.13
2023-04-28T15:45:37.289Z,99774.84
2023-04-28T15:48:09.174Z,99774.00
2023-04-28T15:50:37.425Z,99775.69
2023-04-28T15:53:04.804Z,99770.47
2023-04-28T15:55:32.196Z,99763.38
2023-04-28T15:58:00.805Z,99759.59
2023-04-28T16:00:28.285Z,99758.75
2023-04-28T16:02:56.043Z,99750.00
2023-04-28T16:05:23.499Z,99754.38
2023-04-28T16:07:52.630Z,99747.06
2023-04-28T16:10:20.510Z,99745.41
2023-04-28T16:12:47.959Z,99741.63
2023-04-28T16:15:15.416Z,99749.78
2023-04-28T16:17:44.291Z,99747.06
2023-04-28T16:20:12.129Z,99738.06
2023-04-28T16:22:40.055Z,99739.72
2023-04-28T16:25:08.087Z,99731.56
2023-04-28T16:27:35.631Z,99737.00
2023-04-28T16:30:04.988Z,99726.16
2023-04-28T16:32:33.589Z,99726.97
2023-04-28T16:35:01.246Z,99720.47
2023-04-28T16:37:28.767Z,99715.28
2023-04-28T16:39:56.690Z,99710.66
2023-04-28T16:42:24.119Z,99699.78
2023-04-28T16:44:52.854Z,99709.59
2023-04-28T16:47:21.132Z,99696.87
2023-04-28T16:49:48.974Z,99701.03
2023-04-28T16:52:16.777Z,99700.78
2023-04-28T16:54:44.545Z,99692.62
2023-04-28T16:57:11.959Z,99682.81
2023-04-28T16:59:39.405Z,99682.63
2023-04-28T17:02:07.224Z,99691.38
2023-04-28T17:04:35.386Z,99682.16
2023-04-28T17:07:06.268Z,99674.00
2023-04-28T17:09:33.989Z,99671.09
2023-04-28T17:12:01.457Z,99664.59
2023-04-28T17:14:28.823Z,99654.78
2023-04-28T17:16:56.606Z,99653.72
2023-04-28T17:19:23.993Z,99643.44
2023-04-28T17:21:52.818Z,99634.44
2023-04-28T17:24:20.608Z,99631.50
2023-04-28T17:26:48.016Z,99630.25
2023-04-28T17:29:15.534Z,99627.50
2023-04-28T17:31:43.372Z,99625.03
2023-04-28T17:34:11.033Z,99629.41
2023-04-28T17:36:38.533Z,99634.84
2023-04-28T17:39:06.217Z,99654.47
2023-04-28T17:41:33.707Z,99657.19
2023-04-28T17:44:01.609Z,99663.44
2023-04-28T17:46:29.486Z,99669.94
2023-04-28T17:48:56.876Z,99663.44
2023-04-28T17:51:24.538Z,99652.56
2023-04-28T17:53:52.782Z,99657.34
2023-04-28T17:56:20.323Z,99651.91
2023-04-28T17:58:47.787Z,99655.84
2023-04-28T18:01:15.662Z,99658.28
2023-04-28T18:03:43.664Z,99661.56
2023-04-28T18:06:11.578Z,99668.13
2023-04-28T18:08:40.096Z,99672.87
2023-04-28T18:11:10.242Z,99680.28
2023-04-28T18:13:38.323Z,99677.62
2023-04-28T18:16:05.975Z,99674.97
2023-04-28T18:18:35.636Z,99670.44
2023-04-28T18:21:03.480Z,99670.47
2023-04-28T18:23:31.096Z,99679.53
2023-04-28T18:25:59.138Z,99673.56
2023-04-28T18:28:26.696Z,99667.31
2023-04-28T18:30:54.375Z,99673.00
2023-04-28T18:33:26.236Z,99672.69
2023-04-28T18:36:01.771Z,99667.50
2023-04-28T18:38:31.799Z,99671.53
2023-04-28T18:40:59.425Z,99669.53
2023-04-28T18:43:28.176Z,99674.66
2023-04-28T18:45:56.368Z,99674.31
2023-04-28T18:48:24.819Z,99672.06
2023-04-28T18:50:55.624Z,99667.34
2023-04-28T18:53:23.597Z,99670.78
2023-04-28T18:55:54.891Z,99671.13
2023-04-28T18:58:22.952Z,99672.31
2023-04-28T19:00:51.130Z,99669.12
2023-04-28T19:03:21.289Z,99669.25
2023-04-28T19:05:50.093Z,99663.53
2023-04-28T19:08:17.839Z,99663.06
2023-04-28T19:10:46.058Z,99673.72
2023-04-28T19:13:16.729Z,99665.53
2023-04-28T19:15:44.562Z,99664.47
2023-04-28T19:18:13.174Z,99669.09
2023-04-28T19:20:42.833Z,99679.19
2023-04-28T19:23:11.546Z,99681.09
2023-04-28T19:25:39.974Z,99686.56
2023-04-28T19:28:08.480Z,99684.06
2023-04-28T19:30:37.836Z,99682.38
2023-04-28T19:33:06.613Z,99687.50
2023-04-28T19:35:35.544Z,99680.16
2023-04-28T19:38:03.706Z,99690.47
2023-04-28T19:40:31.985Z,99686.31
2023-04-28T19:43:00.508Z,99688.44
2023-04-28T19:45:28.693Z,99693.31
2023-04-28T19:47:57.193Z,99690.84
2023-04-28T19:50:26.198Z,99690.22
2023-04-28T19:52:54.472Z,99683.13
2023-04-28T19:55:23.494Z,99677.06
2023-04-28T19:57:53.581Z,99672.09
2023-04-28T20:00:22.977Z,99672.09
2023-04-28T20:02:52.941Z,99658.91
2023-04-28T20:05:21.414Z,99650.16
2023-04-28T20:07:49.689Z,99649.34
2023-04-28T20:10:19.633Z,99646.25
2023-04-28T20:12:47.578Z,99627.16
2023-04-28T20:15:18.485Z,99633.69
2023-04-28T20:17:47.353Z,99630.34
2023-04-28T20:20:14.934Z,99630.09
2023-04-28T20:22:42.482Z,99630.59
2023-04-28T20:25:11.037Z,99632.94
2023-04-28T20:27:38.881Z,99624.19
2023-04-28T20:30:07.793Z,99629.66
2023-04-28T20:32:37.192Z,99639.38
2023-04-28T20:35:06.803Z,99619.66
2023-04-28T20:37:34.191Z,99619.66
2023-04-28T20:40:01.885Z,99613.59
2023-04-28T20:42:29.351Z,99617.19
2023-04-28T20:44:56.825Z,99624.97
2023-04-28T20:47:24.776Z,99619.50
2023-04-28T20:49:52.555Z,99618.94
2023-04-28T20:52:20.430Z,99621.88
2023-04-28T20:54:48.121Z,99636.81
2023-04-28T20:57:15.562Z,99640.00
2023-04-28T20:59:42.962Z,99644.88
2023-04-28T21:02:11.044Z,99638.81
2023-04-28T21:04:38.505Z,99623.78
2023-04-28T21:07:06.100Z,99627.34
2023-04-28T21:09:35.819Z,99619.63
2023-04-28T21:12:03.697Z,99620.09
2023-04-28T21:14:31.148Z,99622.84
2023-04-28T21:16:58.951Z,99616.56
2023-04-28T21:19:26.565Z,99615.47
2023-04-28T21:21:54.222Z,99623.75
2023-04-28T21:24:22.125Z,99617.97
2023-04-28T21:26:49.596Z,99620.09
2023-04-28T21:29:18.492Z,99619.72
2023-04-28T21:31:46.991Z,99625.41
2023-04-28T21:34:14.612Z,99622.91
2023-04-28T21:36:42.183Z,99622.31
2023-04-28T21:39:10.456Z,99623.38
2023-04-28T21:41:38.393Z,99614.63
2023-04-28T21:44:06.086Z,99612.34
2023-04-28T21:46:34.292Z,99622.44
2023-04-28T21:49:01.790Z,99612.59
2023-04-28T21:51:29.427Z,99613.88
2023-04-28T21:53:57.227Z,99612.22
2023-04-28T21:56:24.659Z,99618.75
2023-04-28T21:58:52.098Z,99624.41
2023-04-28T22:01:19.897Z,99616.47
2023-04-28T22:03:47.876Z,99618.13
2023-04-28T22:06:18.029Z,99623.22
2023-04-28T22:08:46.588Z,99623.44
2023-04-28T22:11:14.291Z,99615.53
2023-04-28T22:13:41.665Z,99617.63
2023-04-28T22:16:09.196Z,99624.16
2023-04-28T22:18:37.019Z,99620.59
2023-04-28T22:21:06.901Z,99627.13
2023-04-28T22:23:34.299Z,99621.03
2023-04-28T22:26:01.998Z,99628.59
2023-04-28T22:28:29.521Z,99622.34
2023-04-28T22:30:57.278Z,99621.50
2023-04-28T22:33:24.990Z,99613.53
2023-04-28T22:35:52.398Z,99614.63
2023-04-28T22:38:19.775Z,99612.97
2023-04-28T22:40:47.454Z,99616.75
2023-04-28T22:43:14.983Z,99604.16
2023-04-28T22:45:48.051Z,99618.84
2023-04-28T22:48:16.770Z,99610.34
2023-04-28T22:50:46.093Z,99607.63
2023-04-28T22:53:13.572Z,99606.56
2023-04-28T22:55:42.990Z,99606.56
2023-04-28T22:58:10.878Z,99608.66
2023-04-28T23:00:38.283Z,99602.19
2023-04-28T23:03:06.093Z,99603.22
2023-04-28T23:05:36.568Z,99597.19
2023-04-28T23:08:04.727Z,99597.19
2023-04-28T23:10:32.391Z,99590.09
2023-04-28T23:13:00.193Z,99591.13
2023-04-28T23:15:27.570Z,99598.25
2023-04-28T23:17:55.389Z,99593.00
2023-04-28T23:20:22.798Z,99587.56
2023-04-28T23:22:50.515Z,99579.66
2023-04-28T23:25:18.455Z,99590.78
2023-04-28T23:27:46.076Z,99588.06
2023-04-28T23:30:14.903Z,99579.06
2023-04-28T23:32:42.845Z,99577.38
2023-04-28T23:35:10.682Z,99576.53
2023-04-28T23:37:38.103Z,99571.34
2023-04-28T23:40:06.811Z,99572.16
2023-04-28T23:42:34.327Z,99573.25
2023-04-28T23:45:01.757Z,99562.56
2023-04-28T23:47:30.708Z,99561.72
2023-04-28T23:49:58.190Z,99561.72
2023-04-28T23:52:25.590Z,99554.62
2023-04-28T23:54:53.884Z,99565.53
2023-04-28T23:57:21.775Z,99556.78
2023-04-28T23:59:49.296Z,99548.59
